createdAt,value
2018-12-06T00:02:14.859Z,86.88
2018-12-06T00:04:44.423Z,87.39
2018-12-06T00:07:16.175Z,87.59
2018-12-06T00:09:47.236Z,87.48
2018-12-06T00:12:19.003Z,86.82
2018-12-06T00:15:02.372Z,87.92
2018-12-06T00:17:34.048Z,87.90
2018-12-06T00:20:05.285Z,88.15
2018-12-06T00:22:36.698Z,88.32
2018-12-06T00:25:07.665Z,88.94
2018-12-06T00:30:32.483Z,88.28
2018-12-06T00:33:04.413Z,88.48
2018-12-06T00:35:35.688Z,88.51
2018-12-06T00:38:07.575Z,88.73
2018-12-06T00:40:38.456Z,88.40
2018-12-06T00:43:09.251Z,88.75
2018-12-06T00:45:40.350Z,88.89
2018-12-06T00:48:12.272Z,88.76
2018-12-06T00:50:43.948Z,88.64
2018-12-06T00:53:15.659Z,88.12
2018-12-06T00:55:45.525Z,88.11
2018-12-06T00:58:17.221Z,88.15
2018-12-06T01:00:48.072Z,88.08
2018-12-06T01:03:19.764Z,88.23
2018-12-06T01:05:50.869Z,88.31
2018-12-06T01:08:25.040Z,88.11
2018-12-06T01:10:54.180Z,87.91
2018-12-06T01:13:25.457Z,87.98
2018-12-06T01:15:57.223Z,88.54
2018-12-06T01:18:28.187Z,87.87
2018-12-06T01:21:02.432Z,87.83
2018-12-06T01:23:33.746Z,88.12
2018-12-06T01:26:04.731Z,88.31
2018-12-06T01:28:35.584Z,88.56
2018-12-06T01:31:06.480Z,88.73
2018-12-06T01:33:37.376Z,88.92
2018-12-06T01:36:08.608Z,89.69
2018-12-06T01:38:40.351Z,89.06
2018-12-06T01:41:11.253Z,88.78
2018-12-06T01:46:20.239Z,88.81
2018-12-06T01:48:51.882Z,89.08
2018-12-06T01:51:23.988Z,89.39
2018-12-06T01:53:55.324Z,88.97
2018-12-06T01:56:26.487Z,88.74
2018-12-06T01:58:58.327Z,89.12
2018-12-06T02:01:29.227Z,89.35
2018-12-06T02:04:00.946Z,89.35
2018-12-06T02:06:31.794Z,89.21
2018-12-06T02:09:04.307Z,89.02
2018-12-06T02:11:35.448Z,89.57
2018-12-06T02:14:07.411Z,89.22
2018-12-06T02:16:37.204Z,89.30
2018-12-06T02:19:08.964Z,89.12
2018-12-06T02:21:40.759Z,89.03
2018-12-06T02:24:12.465Z,88.77
2018-12-06T02:26:43.348Z,88.91
2018-12-06T02:29:14.267Z,89.32
2018-12-06T02:31:46.723Z,88.81
2018-12-06T02:34:17.757Z,88.05
2018-12-06T02:36:48.840Z,88.58
2018-12-06T02:39:20.647Z,88.80
2018-12-06T02:41:52.287Z,88.27
2018-12-06T02:44:23.389Z,88.78
2018-12-06T02:46:55.051Z,89.02
2018-12-06T02:49:25.994Z,89.20
2018-12-06T02:51:57.724Z,88.64
2018-12-06T02:54:29.247Z,89.56
2018-12-06T02:57:00.132Z,89.43
2018-12-06T02:59:31.109Z,89.43
2018-12-06T03:02:01.999Z,89.24
2018-12-06T03:04:32.899Z,88.95
2018-12-06T03:07:03.972Z,89.68
2018-12-06T03:09:35.446Z,89.07
2018-12-06T03:12:07.007Z,88.96
2018-12-06T03:14:37.802Z,88.95
2018-12-06T03:17:08.801Z,89.15
2018-12-06T03:19:39.708Z,88.52
2018-12-06T03:22:10.997Z,89.30
2018-12-06T03:24:42.668Z,89.24
2018-12-06T03:27:13.636Z,89.75
2018-12-06T03:29:45.510Z,88.96
2018-12-06T03:32:16.219Z,89.37
2018-12-06T03:34:47.065Z,89.39
2018-12-06T03:37:22.431Z,88.86
2018-12-06T03:39:56.423Z,88.56
2018-12-06T03:42:27.865Z,88.77
2018-12-06T03:44:58.739Z,89.00
2018-12-06T03:47:29.738Z,88.98
2018-12-06T03:50:00.771Z,89.53
2018-12-06T03:52:32.492Z,89.50
2018-12-06T03:55:04.569Z,89.71
2018-12-06T03:57:35.985Z,89.08
2018-12-06T04:00:07.377Z,89.10
2018-12-06T04:02:39.085Z,89.14
2018-12-06T04:05:10.061Z,89.10
2018-12-06T04:07:40.956Z,88.71
2018-12-06T04:10:14.316Z,88.22
2018-12-06T04:12:45.824Z,88.11
2018-12-06T04:15:17.467Z,87.68
2018-12-06T04:17:50.821Z,88.34
2018-12-06T04:20:26.417Z,88.08
2018-12-06T04:22:58.301Z,88.51
2018-12-06T04:25:30.068Z,89.17
2018-12-06T04:28:01.108Z,88.24
2018-12-06T04:30:32.004Z,88.61
2018-12-06T04:33:03.141Z,88.29
2018-12-06T04:35:33.896Z,88.52
2018-12-06T04:38:05.679Z,87.87
2018-12-06T04:40:37.445Z,88.50
2018-12-06T04:43:09.020Z,87.97
2018-12-06T04:45:40.051Z,87.60
2018-12-06T04:48:11.791Z,87.98
2018-12-06T04:50:42.773Z,88.04
2018-12-06T04:53:13.755Z,88.32
2018-12-06T04:55:43.505Z,88.11
2018-12-06T04:58:14.328Z,88.35
2018-12-06T05:00:45.099Z,87.75
2018-12-06T05:03:19.604Z,88.26
2018-12-06T05:05:50.656Z,88.40
2018-12-06T05:08:21.555Z,87.80
2018-12-06T05:10:52.615Z,87.57
2018-12-06T05:13:24.394Z,88.18
2018-12-06T05:15:55.298Z,88.14
2018-12-06T05:18:29.305Z,88.46
2018-12-06T05:21:00.715Z,88.20
2018-12-06T05:23:31.804Z,88.50
2018-12-06T05:26:02.660Z,88.43
2018-12-06T05:28:36.051Z,88.31
2018-12-06T05:31:05.387Z,88.36
2018-12-06T05:36:05.168Z,88.81
2018-12-06T05:38:35.964Z,89.17
2018-12-06T05:41:07.756Z,88.59
2018-12-06T05:43:38.685Z,88.64
2018-12-06T05:46:09.701Z,88.66
2018-12-06T05:48:41.016Z,88.93
2018-12-06T05:51:14.317Z,88.57
2018-12-06T05:53:45.477Z,88.55
2018-12-06T05:56:16.475Z,88.14
2018-12-06T05:58:47.464Z,88.54
2018-12-06T06:01:19.218Z,88.50
2018-12-06T06:03:51.168Z,88.29
2018-12-06T06:06:22.101Z,88.15
2018-12-06T06:08:57.001Z,87.57
2018-12-06T06:11:26.636Z,88.49
2018-12-06T06:13:58.504Z,87.94
2018-12-06T06:16:29.327Z,88.98
2018-12-06T06:19:00.272Z,88.09
2018-12-06T06:21:31.205Z,88.00
2018-12-06T06:24:04.624Z,88.54
2018-12-06T06:26:35.674Z,88.25
2018-12-06T06:29:07.020Z,88.41
2018-12-06T06:31:39.314Z,88.46
2018-12-06T06:34:10.672Z,88.57
2018-12-06T06:39:11.699Z,88.12
2018-12-06T06:41:42.568Z,88.39
2018-12-06T06:44:14.443Z,88.94
2018-12-06T06:46:46.133Z,88.69
2018-12-06T06:49:17.965Z,88.07
2018-12-06T06:51:48.953Z,88.26
2018-12-06T06:54:20.049Z,88.05
2018-12-06T06:56:51.817Z,87.97
2018-12-06T06:59:26.226Z,87.97
2018-12-06T07:01:57.570Z,88.04
2018-12-06T07:04:27.425Z,88.25
2018-12-06T07:07:01.672Z,87.80
2018-12-06T07:09:33.294Z,87.71
2018-12-06T07:12:09.470Z,87.63
2018-12-06T07:14:41.319Z,88.15
2018-12-06T07:17:15.200Z,89.02
2018-12-06T07:19:46.059Z,88.48
2018-12-06T07:22:17.191Z,88.87
2018-12-06T07:24:54.304Z,88.89
2018-12-06T07:27:26.341Z,89.57
2018-12-06T07:29:57.791Z,89.24
2018-12-06T07:32:31.191Z,90.07
2018-12-06T07:35:02.496Z,89.21
2018-12-06T07:37:34.965Z,89.49
2018-12-06T07:40:06.480Z,88.66
2018-12-06T07:42:38.192Z,89.78
2018-12-06T07:45:10.023Z,89.38
2018-12-06T07:47:40.233Z,89.84
2018-12-06T07:50:16.871Z,89.82
2018-12-06T07:52:48.565Z,89.36
2018-12-06T07:55:19.607Z,89.25
2018-12-06T07:57:51.300Z,89.30
2018-12-06T08:00:28.653Z,89.41
2018-12-06T08:02:59.483Z,89.76
2018-12-06T08:05:30.940Z,89.63
2018-12-06T08:08:03.468Z,89.90
2018-12-06T08:10:34.950Z,89.80
2018-12-06T08:13:11.285Z,89.13
2018-12-06T08:15:42.678Z,89.54
2018-12-06T08:18:15.316Z,89.92
2018-12-06T08:20:46.962Z,89.34
2018-12-06T08:23:19.488Z,89.76
2018-12-06T08:25:50.871Z,89.58
2018-12-06T08:28:21.812Z,89.13
2018-12-06T08:30:55.388Z,89.24
2018-12-06T08:33:32.783Z,89.26
2018-12-06T08:36:05.810Z,89.47
2018-12-06T08:38:38.219Z,89.55
2018-12-06T08:41:13.660Z,88.54
2018-12-06T08:43:45.760Z,88.75
2018-12-06T08:46:18.606Z,88.47
2018-12-06T08:48:50.175Z,89.37
2018-12-06T08:51:23.819Z,88.97
2018-12-06T08:53:57.601Z,89.43
2018-12-06T08:56:29.415Z,89.48
2018-12-06T08:59:00.724Z,88.30
2018-12-06T09:01:34.076Z,88.63
2018-12-06T09:04:07.444Z,89.26
2018-12-06T09:06:43.455Z,88.88
2018-12-06T09:09:17.628Z,88.75
2018-12-06T09:11:48.444Z,89.09
2018-12-06T09:14:20.932Z,89.20
2018-12-06T09:16:58.164Z,89.71
2018-12-06T09:19:32.482Z,88.46
2018-12-06T09:22:06.299Z,88.72
2018-12-06T09:24:40.265Z,88.79
2018-12-06T09:27:11.363Z,88.50
2018-12-06T09:29:42.448Z,87.77
2018-12-06T09:32:14.035Z,87.80
2018-12-06T09:34:47.650Z,87.71
2018-12-06T09:37:19.812Z,88.25
2018-12-06T09:40:01.243Z,87.97
2018-12-06T09:42:40.372Z,88.39
2018-12-06T09:45:12.010Z,88.29
2018-12-06T09:47:46.092Z,88.22
2018-12-06T09:50:20.553Z,88.15
2018-12-06T09:52:52.450Z,87.58
2018-12-06T09:55:24.357Z,87.68
2018-12-06T09:57:56.231Z,87.54
2018-12-06T10:00:30.330Z,87.65
2018-12-06T10:03:01.615Z,87.67
2018-12-06T10:05:34.144Z,87.39
2018-12-06T10:08:09.507Z,88.05
2018-12-06T10:10:43.426Z,88.40
2018-12-06T10:13:14.374Z,88.67
2018-12-06T10:15:45.880Z,88.54
2018-12-06T10:18:17.431Z,88.70
2018-12-06T10:20:48.991Z,88.47
2018-12-06T10:23:24.904Z,88.67
2018-12-06T10:25:59.289Z,88.98
2018-12-06T10:28:31.016Z,88.74
2018-12-06T10:31:00.920Z,88.56
2018-12-06T10:33:32.660Z,88.87
2018-12-06T10:36:05.039Z,88.94
2018-12-06T10:38:36.431Z,88.91
2018-12-06T10:41:08.343Z,88.67
2018-12-06T10:43:42.844Z,89.14
2018-12-06T10:46:18.633Z,89.74
2018-12-06T10:48:49.935Z,88.77
2018-12-06T10:51:53.103Z,88.75
2018-12-06T10:54:30.173Z,89.46
2018-12-06T10:57:03.844Z,89.73
2018-12-06T10:59:40.500Z,89.38
2018-12-06T11:02:18.036Z,89.52
2018-12-06T11:04:55.537Z,89.52
2018-12-06T11:07:26.837Z,89.50
2018-12-06T11:10:43.072Z,89.75
2018-12-06T11:13:15.238Z,89.83
2018-12-06T11:15:47.611Z,89.75
2018-12-06T11:18:21.846Z,89.99
2018-12-06T11:20:54.953Z,90.75
2018-12-06T11:23:26.341Z,90.62
2018-12-06T11:25:57.871Z,90.17
2018-12-06T11:28:31.108Z,90.13
2018-12-06T11:31:03.028Z,90.43
2018-12-06T11:33:34.688Z,89.50
2018-12-06T11:36:09.239Z,90.18
2018-12-06T11:38:41.383Z,90.38
2018-12-06T11:41:13.335Z,90.06
2018-12-06T11:43:46.123Z,89.35
2018-12-06T11:46:20.475Z,88.76
2018-12-06T11:48:51.459Z,88.60
2018-12-06T11:51:22.636Z,88.28
2018-12-06T11:53:56.516Z,88.57
2018-12-06T11:56:29.161Z,87.90
2018-12-06T11:59:00.790Z,88.22
2018-12-06T12:01:33.092Z,88.60
2018-12-06T12:04:04.997Z,88.23
2018-12-06T12:06:36.716Z,88.32
2018-12-06T12:09:16.080Z,88.18
2018-12-06T12:11:48.160Z,89.23
2018-12-06T12:14:21.404Z,89.33
2018-12-06T12:16:55.355Z,88.54
2018-12-06T12:19:27.157Z,88.50
2018-12-06T12:21:58.754Z,88.69
2018-12-06T12:24:30.496Z,88.31
2018-12-06T12:27:00.279Z,88.22
2018-12-06T12:29:32.100Z,88.07
2018-12-06T12:32:06.429Z,88.82
2018-12-06T12:34:37.485Z,88.58
2018-12-06T12:37:07.124Z,88.56
2018-12-06T12:42:41.468Z,88.77
2018-12-06T12:45:12.567Z,88.91
2018-12-06T12:47:44.491Z,88.31
2018-12-06T12:50:16.035Z,88.49
2018-12-06T12:52:47.183Z,89.00
2018-12-06T12:55:18.944Z,88.70
2018-12-06T12:57:52.953Z,88.41
2018-12-06T13:00:26.091Z,88.01
2018-12-06T13:02:57.437Z,87.61
2018-12-06T13:05:30.951Z,88.06
2018-12-06T13:08:02.921Z,88.07
2018-12-06T13:10:34.583Z,87.70
2018-12-06T13:13:05.728Z,87.78
2018-12-06T13:15:39.138Z,88.19
2018-12-06T13:21:14.495Z,88.36
2018-12-06T13:23:53.883Z,88.22
2018-12-06T13:26:25.319Z,88.28
2018-12-06T13:28:56.373Z,88.08
2018-12-06T13:31:27.920Z,87.71
2018-12-06T13:34:01.524Z,87.69
2018-12-06T13:36:35.137Z,87.98
2018-12-06T13:39:06.856Z,87.79
2018-12-06T13:41:40.681Z,88.17
2018-12-06T13:44:11.907Z,88.25
2018-12-06T13:49:47.495Z,87.83
2018-12-06T13:52:19.120Z,87.86
2018-12-06T13:54:50.676Z,87.61
2018-12-06T13:57:21.649Z,87.77
2018-12-06T13:59:51.468Z,88.55
2018-12-06T14:02:23.232Z,88.53
2018-12-06T14:04:54.032Z,87.91
2018-12-06T14:07:30.275Z,88.30
2018-12-06T14:10:01.460Z,88.40
2018-12-06T14:12:38.555Z,88.45
2018-12-06T14:15:12.670Z,88.41
2018-12-06T14:17:44.123Z,88.29
2018-12-06T14:20:15.596Z,88.45
2018-12-06T14:22:47.203Z,88.23
2018-12-06T14:25:19.027Z,87.85
2018-12-06T14:27:50.080Z,87.85
2018-12-06T14:30:21.172Z,88.11
2018-12-06T14:32:52.737Z,88.46
2018-12-06T14:35:23.763Z,88.75
2018-12-06T14:37:55.456Z,88.59
2018-12-06T14:40:27.311Z,89.00
2018-12-06T14:42:59.267Z,89.04
2018-12-06T14:45:31.331Z,88.42
2018-12-06T14:48:06.963Z,88.62
2018-12-06T14:55:41.962Z,88.21
2018-12-06T14:58:13.320Z,88.76
2018-12-06T15:00:44.279Z,88.52
2018-12-06T15:03:13.920Z,88.38
2018-12-06T15:05:45.628Z,88.51
2018-12-06T15:08:17.335Z,88.40
2018-12-06T15:10:49.012Z,89.16
2018-12-06T15:13:19.996Z,88.52
2018-12-06T15:15:51.530Z,87.72
2018-12-06T15:18:26.840Z,88.05
2018-12-06T15:20:58.065Z,88.04
2018-12-06T15:23:28.941Z,87.50
2018-12-06T15:26:00.204Z,87.69
2018-12-06T15:28:31.807Z,87.91
2018-12-06T15:31:03.512Z,87.67
2018-12-06T15:33:33.099Z,88.42
2018-12-06T15:36:04.315Z,88.44
2018-12-06T15:38:36.080Z,88.20
2018-12-06T15:41:07.831Z,88.25
2018-12-06T15:43:43.155Z,87.82
2018-12-06T15:46:14.491Z,87.81
2018-12-06T15:48:46.189Z,87.94
2018-12-06T15:51:18.021Z,88.45
2018-12-06T15:53:50.721Z,88.49
2018-12-06T15:56:28.683Z,88.81
2018-12-06T15:59:03.190Z,87.81
2018-12-06T16:01:32.788Z,88.04
2018-12-06T16:04:04.569Z,87.75
2018-12-06T16:06:36.770Z,87.64
2018-12-06T16:09:08.006Z,87.57
2018-12-06T16:11:38.956Z,87.41
2018-12-06T16:14:09.894Z,87.69
2018-12-06T16:16:41.168Z,87.63
2018-12-06T16:19:15.150Z,87.66
2018-12-06T16:21:47.975Z,87.53
2018-12-06T16:24:19.456Z,87.83
2018-12-06T16:26:51.776Z,87.80
2018-12-06T16:29:23.744Z,88.46
2018-12-06T16:31:55.210Z,87.93
2018-12-06T16:34:28.839Z,88.41
2018-12-06T16:36:58.598Z,88.32
2018-12-06T16:39:31.142Z,88.45
2018-12-06T16:42:01.201Z,88.69
2018-12-06T16:44:30.771Z,88.67
2018-12-06T16:47:07.076Z,89.33
2018-12-06T16:49:38.716Z,89.68
2018-12-06T16:52:10.196Z,89.86
2018-12-06T16:57:13.167Z,88.67
2018-12-06T16:59:48.095Z,89.07
2018-12-06T17:02:19.176Z,89.41
2018-12-06T17:04:51.568Z,89.08
2018-12-06T17:07:23.179Z,89.28
2018-12-06T17:09:57.056Z,89.04
2018-12-06T17:12:28.093Z,89.30
2018-12-06T17:15:00.127Z,89.06
2018-12-06T17:17:29.932Z,89.50
2018-12-06T17:20:00.908Z,89.14
2018-12-06T17:22:32.491Z,89.41
2018-12-06T17:25:05.783Z,89.54
2018-12-06T17:27:39.229Z,89.29
2018-12-06T17:30:11.028Z,89.35
2018-12-06T17:32:49.220Z,89.59
2018-12-06T17:35:20.964Z,89.93
2018-12-06T17:37:52.929Z,89.41
2018-12-06T17:40:23.727Z,89.58
2018-12-06T17:42:54.738Z,89.34
2018-12-06T17:45:35.091Z,89.47
2018-12-06T17:48:10.384Z,89.88
2018-12-06T17:50:43.579Z,89.08
2018-12-06T17:53:17.867Z,89.56
2018-12-06T18:03:19.955Z,89.94
2018-12-06T18:05:51.343Z,89.87
2018-12-06T18:08:22.407Z,89.82
2018-12-06T18:10:54.391Z,89.40
2018-12-06T18:13:24.232Z,89.11
2018-12-06T18:15:58.243Z,89.29
2018-12-06T18:18:29.820Z,89.54
2018-12-06T18:21:03.536Z,89.53
2018-12-06T18:23:35.603Z,89.21
2018-12-06T18:26:07.027Z,89.97
2018-12-06T18:28:38.079Z,89.10
2018-12-06T18:31:09.925Z,89.39
2018-12-06T18:33:42.207Z,89.54
2018-12-06T18:36:13.647Z,89.45
2018-12-06T18:38:46.640Z,89.25
2018-12-06T18:41:18.080Z,89.65
2018-12-06T18:43:49.069Z,89.34
2018-12-06T18:46:20.179Z,89.86
2018-12-06T18:48:51.859Z,90.08
2018-12-06T18:51:23.779Z,89.29
2018-12-06T18:54:03.578Z,89.48
2018-12-06T18:56:34.448Z,89.72
2018-12-06T18:59:06.896Z,89.76
2018-12-06T19:01:42.947Z,89.27
2018-12-06T19:04:14.678Z,89.25
2018-12-06T19:06:46.802Z,89.19
2018-12-06T19:09:18.376Z,89.66
2018-12-06T19:11:53.674Z,89.41
2018-12-06T19:14:30.852Z,89.20
2018-12-06T19:17:02.791Z,89.25
2018-12-06T19:19:36.364Z,89.10
2018-12-06T19:22:09.659Z,89.17
2018-12-06T19:24:41.037Z,89.16
2018-12-06T19:27:12.268Z,89.18
2018-12-06T19:29:43.762Z,89.29
2018-12-06T19:32:15.550Z,89.09
2018-12-06T19:34:46.441Z,88.82
2018-12-06T19:37:22.899Z,88.60
2018-12-06T19:39:54.273Z,88.56
2018-12-06T19:42:27.741Z,88.51
2018-12-06T19:44:58.944Z,88.66
2018-12-06T19:47:29.975Z,88.36
2018-12-06T19:50:00.946Z,88.50
2018-12-06T19:52:32.500Z,88.27
2018-12-06T19:55:07.621Z,88.70
2018-12-06T19:57:40.255Z,88.64
2018-12-06T20:00:11.803Z,88.27
2018-12-06T20:02:46.940Z,88.43
2018-12-06T20:05:18.563Z,88.29
2018-12-06T20:07:50.560Z,88.06
2018-12-06T20:10:23.505Z,88.42
2018-12-06T20:13:01.460Z,88.39
2018-12-06T20:15:32.683Z,88.10
2018-12-06T20:18:03.787Z,87.81
2018-12-06T20:20:34.371Z,88.05
2018-12-06T20:23:05.359Z,87.99
2018-12-06T20:25:38.779Z,87.72
2018-12-06T20:28:09.939Z,87.65
2018-12-06T20:30:40.807Z,87.65
2018-12-06T20:33:12.525Z,87.44
2018-12-06T20:35:44.232Z,87.47
2018-12-06T20:38:15.899Z,88.06
2018-12-06T20:40:50.282Z,87.86
2018-12-06T20:43:21.579Z,87.88
2018-12-06T20:45:56.643Z,87.85
2018-12-06T20:48:28.171Z,87.98
2018-12-06T20:50:59.820Z,87.73
2018-12-06T20:53:31.575Z,87.79
2018-12-06T20:56:02.600Z,87.75
2018-12-06T20:58:34.236Z,87.75
2018-12-06T21:01:05.156Z,87.77
2018-12-06T21:03:36.772Z,87.92
2018-12-06T21:08:35.516Z,87.73
2018-12-06T21:11:07.237Z,87.55
2018-12-06T21:13:38.056Z,87.46
2018-12-06T21:16:10.104Z,87.63
2018-12-06T21:18:39.672Z,87.62
2018-12-06T21:21:10.724Z,87.93
2018-12-06T21:23:44.673Z,87.77
2018-12-06T21:26:15.930Z,87.75
2018-12-06T21:28:47.748Z,87.70
2018-12-06T21:31:19.480Z,87.86
2018-12-06T21:33:50.995Z,87.72
2018-12-06T21:36:22.051Z,87.37
2018-12-06T21:38:53.777Z,87.50
2018-12-06T21:41:25.584Z,87.89
2018-12-06T21:43:57.045Z,87.75
2018-12-06T21:46:27.920Z,87.54
2018-12-06T21:48:58.922Z,87.79
2018-12-06T21:51:30.580Z,87.81
2018-12-06T21:54:02.353Z,87.54
2018-12-06T21:56:34.032Z,87.84
2018-12-06T21:59:05.711Z,87.41
2018-12-06T22:01:37.749Z,87.32
2018-12-06T22:04:07.526Z,87.59
2018-12-06T22:09:07.749Z,87.51
2018-12-06T22:11:38.523Z,87.48
2018-12-06T22:14:09.468Z,87.47
2018-12-06T22:16:41.768Z,87.61
2018-12-06T22:19:11.084Z,87.66
2018-12-06T22:21:41.836Z,87.44
2018-12-06T22:24:15.457Z,87.58
2018-12-06T22:26:47.672Z,87.56
2018-12-06T22:29:19.392Z,87.00
2018-12-06T22:31:50.188Z,87.32
2018-12-06T22:34:21.138Z,87.45
2018-12-06T22:36:52.017Z,87.47
2018-12-06T22:39:25.627Z,87.01
2018-12-06T22:41:59.297Z,87.22
2018-12-06T22:44:30.552Z,87.42
2018-12-06T22:47:04.948Z,87.45
2018-12-06T22:49:36.239Z,87.13
2018-12-06T22:52:08.020Z,87.16
2018-12-06T22:54:38.979Z,87.17
2018-12-06T22:57:09.961Z,87.57
2018-12-06T22:59:41.704Z,87.52
2018-12-06T23:02:14.136Z,87.29
2018-12-06T23:04:45.752Z,87.19
2018-12-06T23:12:17.201Z,87.05
2018-12-06T23:14:48.972Z,87.53
2018-12-06T23:17:20.707Z,87.31
2018-12-06T23:19:51.680Z,87.40
2018-12-06T23:22:23.429Z,87.17
2018-12-06T23:24:54.359Z,87.51
2018-12-06T23:27:26.109Z,87.69
2018-12-06T23:29:57.786Z,87.53
2018-12-06T23:32:28.827Z,87.55
2018-12-06T23:35:03.011Z,87.71
2018-12-06T23:37:34.216Z,87.44
2018-12-06T23:40:05.500Z,87.91
2018-12-06T23:42:36.797Z,87.46
2018-12-06T23:45:07.976Z,87.67
2018-12-06T23:47:42.070Z,87.54
2018-12-06T23:50:13.211Z,87.43
2018-12-06T23:52:46.900Z,87.60
2018-12-06T23:55:18.067Z,87.22
2018-12-06T23:57:49.754Z,87.56
